createdAt,value
2017-02-08T00:00:26.500Z,0.57
2017-02-08T00:01:32.585Z,0.62
2017-02-08T00:02:36.745Z,0.62
2017-02-08T00:03:42.827Z,0.61
2017-02-08T00:04:48.921Z,0.6
2017-02-08T00:05:54.022Z,0.57
2017-02-08T00:06:59.155Z,0.61
2017-02-08T00:08:03.290Z,0.6
2017-02-08T00:09:08.414Z,0.67
2017-02-08T00:10:13.588Z,0.62
2017-02-08T00:11:18.684Z,0.6
2017-02-08T00:12:23.811Z,0.57
2017-02-08T00:13:29.904Z,0.57
2017-02-08T00:14:34.056Z,0.52
2017-02-08T00:15:40.149Z,0.61
2017-02-08T00:16:46.234Z,0.52
2017-02-08T00:17:52.350Z,0.65
2017-02-08T00:18:58.436Z,0.62
2017-02-08T00:20:04.529Z,0.62
2017-02-08T00:21:10.689Z,0.65
2017-02-08T00:22:16.780Z,0.58
2017-02-08T00:23:22.872Z,0.58
2017-02-08T00:24:28.961Z,0.64
2017-02-08T00:25:35.045Z,0.62
2017-02-08T00:26:41.137Z,0.57
2017-02-08T00:27:47.224Z,0.65
2017-02-08T00:28:53.326Z,0.58
2017-02-08T00:29:56.481Z,0.58
2017-02-08T00:31:00.637Z,0.53
2017-02-08T00:32:06.721Z,0.62
2017-02-08T00:33:11.839Z,0.61
2017-02-08T00:34:16.960Z,0.49
2017-02-08T00:35:21.112Z,0.57
2017-02-08T00:36:27.197Z,0.58
2017-02-08T00:37:31.387Z,0.62
2017-02-08T00:38:37.460Z,0.6
2017-02-08T00:39:42.583Z,0.57
2017-02-08T00:40:47.709Z,0.57
2017-02-08T00:41:53.807Z,0.58
2017-02-08T00:42:58.945Z,0.51
2017-02-08T00:44:05.017Z,0.58
2017-02-08T00:45:10.147Z,0.58
2017-02-08T00:46:14.299Z,0.6
2017-02-08T00:47:20.433Z,0.62
2017-02-08T00:48:25.502Z,0.61
2017-02-08T00:49:29.657Z,0.62
2017-02-08T00:50:34.809Z,0.58
2017-02-08T00:51:38.958Z,0.6
2017-02-08T00:52:44.092Z,0.52
2017-02-08T00:53:49.203Z,0.52
2017-02-08T00:54:55.322Z,0.58
2017-02-08T00:55:59.447Z,0.6
2017-02-08T00:57:04.586Z,0.62
2017-02-08T00:58:09.676Z,0.57
2017-02-08T00:59:15.780Z,0.57
2017-02-08T01:00:20.873Z,0.6
2017-02-08T01:01:25.052Z,0.6
2017-02-08T01:02:31.152Z,0.52
2017-02-08T01:03:36.272Z,0.6
2017-02-08T01:04:41.403Z,0.49
2017-02-08T01:05:47.495Z,0.57
2017-02-08T01:06:53.642Z,0.57
2017-02-08T01:07:57.804Z,0.51
2017-02-08T01:09:03.869Z,0.57
2017-02-08T01:10:08.961Z,0.52
2017-02-08T01:11:14.081Z,0.6
2017-02-08T01:12:19.212Z,0.46
2017-02-08T01:13:25.274Z,0.49
2017-02-08T01:14:31.368Z,0.48
2017-02-08T01:15:37.467Z,0.46
2017-02-08T01:16:42.617Z,0.51
2017-02-08T01:17:47.771Z,0.57
2017-02-08T01:18:52.944Z,0.6
2017-02-08T01:19:59.037Z,0.57
2017-02-08T01:21:05.150Z,0.58
2017-02-08T01:22:10.246Z,0.57
2017-02-08T01:23:13.442Z,0.6
2017-02-08T01:24:18.554Z,0.43
2017-02-08T01:25:23.778Z,0.46
2017-02-08T01:26:29.872Z,0.42
2017-02-08T01:27:35.958Z,0.51
2017-02-08T01:28:42.046Z,0.52
2017-02-08T01:29:48.156Z,0.57
2017-02-08T01:30:52.283Z,0.48
2017-02-08T01:31:55.474Z,0.49
2017-02-08T01:33:01.567Z,0.61
2017-02-08T01:34:06.692Z,0.6
2017-02-08T01:35:10.832Z,0.6
2017-02-08T01:36:15.956Z,0.53
2017-02-08T01:37:21.073Z,0.57
2017-02-08T01:38:26.193Z,0.58
2017-02-08T01:39:32.349Z,0.58
2017-02-08T01:40:37.470Z,0.58
2017-02-08T01:41:41.631Z,0.57
2017-02-08T01:42:45.784Z,0.57
2017-02-08T01:43:50.910Z,0.53
2017-02-08T01:44:56.018Z,0.46
2017-02-08T01:46:01.109Z,0.52
2017-02-08T01:47:06.237Z,0.49
2017-02-08T01:48:11.329Z,0.46
2017-02-08T01:49:16.466Z,0.53
2017-02-08T01:50:21.592Z,0.39
2017-02-08T01:51:26.712Z,0.42
2017-02-08T01:52:31.837Z,0.57
2017-02-08T01:53:37.977Z,0.53
2017-02-08T01:54:43.095Z,0.53
2017-02-08T01:55:48.224Z,0.43
2017-02-08T01:56:53.352Z,0.6
2017-02-08T01:57:59.435Z,0.64
2017-02-08T01:59:04.555Z,0.6
2017-02-08T02:00:09.678Z,0.53
2017-02-08T02:01:14.797Z,0.53
2017-02-08T02:02:20.878Z,0.51
2017-02-08T02:03:25.973Z,0.53
2017-02-08T02:04:31.145Z,0.53
2017-02-08T02:05:36.232Z,0.58
2017-02-08T02:06:41.406Z,0.45
2017-02-08T02:07:46.530Z,0.43
2017-02-08T02:08:52.618Z,0.41
2017-02-08T02:09:57.733Z,0.53
2017-02-08T02:11:02.863Z,0.57
2017-02-08T02:12:06.995Z,0.61
2017-02-08T02:13:13.109Z,0.61
2017-02-08T02:14:18.228Z,0.6
2017-02-08T02:15:24.339Z,0.61
2017-02-08T02:16:29.423Z,0.48
2017-02-08T02:17:34.547Z,0.61
2017-02-08T02:18:39.666Z,0.6
2017-02-08T02:19:45.755Z,0.45
2017-02-08T02:20:49.889Z,0.43
2017-02-08T02:21:55.033Z,0.43
2017-02-08T02:22:59.164Z,0.53
2017-02-08T02:24:05.256Z,0.42
2017-02-08T02:25:08.445Z,0.43
2017-02-08T02:26:13.565Z,0.45
2017-02-08T02:27:19.648Z,0.61
2017-02-08T02:28:22.857Z,0.52
2017-02-08T02:29:28.916Z,0.65
2017-02-08T02:30:35.035Z,0.53
2017-02-08T02:31:41.149Z,0.6
2017-02-08T02:32:46.234Z,0.6
2017-02-08T02:33:51.364Z,0.61
2017-02-08T02:34:56.507Z,0.57
2017-02-08T02:36:02.607Z,0.58
2017-02-08T02:37:08.697Z,0.51
2017-02-08T02:38:14.791Z,0.6
2017-02-08T02:39:18.980Z,0.53
2017-02-08T02:40:25.063Z,0.52
2017-02-08T02:41:31.153Z,0.53
2017-02-08T02:42:36.278Z,0.52
2017-02-08T02:43:41.400Z,0.42
2017-02-08T02:44:46.519Z,0.41
2017-02-08T02:45:49.679Z,0.53
2017-02-08T02:46:53.828Z,0.51
2017-02-08T02:47:59.918Z,0.61
2017-02-08T02:49:05.062Z,0.6
2017-02-08T02:50:11.121Z,0.51
2017-02-08T02:51:15.273Z,0.6
2017-02-08T02:52:20.447Z,0.6
2017-02-08T02:53:25.562Z,0.58
2017-02-08T02:54:31.657Z,0.64
2017-02-08T02:55:37.772Z,0.61
2017-02-08T02:56:42.855Z,0.52
2017-02-08T02:57:47.959Z,0.61
2017-02-08T02:58:54.053Z,0.58
2017-02-08T03:00:00.145Z,0.58
2017-02-08T03:01:05.256Z,0.57
2017-02-08T03:02:09.406Z,0.6
2017-02-08T03:03:13.585Z,0.45
2017-02-08T03:04:18.674Z,0.45
2017-02-08T03:05:23.870Z,0.52
2017-02-08T03:06:29.016Z,0.41
2017-02-08T03:07:35.116Z,0.53
2017-02-08T03:08:40.237Z,0.41
2017-02-08T03:09:46.315Z,0.53
2017-02-08T03:10:51.444Z,0.41
2017-02-08T03:11:56.563Z,0.46
2017-02-08T03:13:02.672Z,0.48
2017-02-08T03:14:07.782Z,0.46
2017-02-08T03:15:13.867Z,0.49
2017-02-08T03:16:18.990Z,0.51
2017-02-08T03:17:25.088Z,0.42
2017-02-08T03:18:31.175Z,0.57
2017-02-08T03:19:37.259Z,0.51
2017-02-08T03:20:43.352Z,0.45
2017-02-08T03:21:49.447Z,0.48
2017-02-08T03:22:55.556Z,0.46
2017-02-08T03:24:00.650Z,0.48
2017-02-08T03:25:05.771Z,0.43
2017-02-08T03:26:11.855Z,0.46
2017-02-08T03:27:17.062Z,0.46
2017-02-08T03:28:23.153Z,0.49
2017-02-08T03:29:28.270Z,0.45
2017-02-08T03:30:33.398Z,0.45
2017-02-08T03:31:37.541Z,0.42
2017-02-08T03:32:41.676Z,0.48
2017-02-08T03:33:46.793Z,0.41
2017-02-08T03:34:52.881Z,0.49
2017-02-08T03:35:58.008Z,0.42
2017-02-08T03:37:04.091Z,0.42
2017-02-08T03:38:08.243Z,0.42
2017-02-08T03:39:13.367Z,0.46
2017-02-08T03:40:19.459Z,0.45
2017-02-08T03:41:23.617Z,0.41
2017-02-08T03:42:27.769Z,0.41
2017-02-08T03:43:33.859Z,0.39
2017-02-08T03:44:39.955Z,0.31
2017-02-08T03:45:45.080Z,0.45
2017-02-08T03:46:50.198Z,0.43
2017-02-08T03:47:55.377Z,0.41
2017-02-08T03:49:01.462Z,0.42
2017-02-08T03:50:06.591Z,0.36
2017-02-08T03:51:12.691Z,0.33
2017-02-08T03:52:16.846Z,0.36
2017-02-08T03:53:21.988Z,0.27
2017-02-08T03:54:28.072Z,0.34
2017-02-08T03:55:32.194Z,0.38
2017-02-08T03:56:37.317Z,0.34
2017-02-08T03:57:40.477Z,0.36
2017-02-08T03:58:46.584Z,0.39
2017-02-08T03:59:51.705Z,0.38
2017-02-08T04:00:57.801Z,0.33
2017-02-08T04:02:02.935Z,0.34
2017-02-08T04:03:09.036Z,0.41
2017-02-08T04:04:13.184Z,0.46
2017-02-08T04:05:17.314Z,0.43
2017-02-08T04:06:23.415Z,0.48
2017-02-08T04:07:29.512Z,0.45
2017-02-08T04:08:35.593Z,0.45
2017-02-08T04:09:41.680Z,0.38
2017-02-08T04:10:46.800Z,0.41
2017-02-08T04:11:52.896Z,0.36
2017-02-08T04:12:58.988Z,0.34
2017-02-08T04:14:04.117Z,0.36
2017-02-08T04:15:09.281Z,0.36
2017-02-08T04:16:15.369Z,0.38
2017-02-08T04:17:21.456Z,0.41
2017-02-08T04:18:26.549Z,0.36
2017-02-08T04:19:32.646Z,0.38
2017-02-08T04:20:38.773Z,0.33
2017-02-08T04:21:44.868Z,0.33
2017-02-08T04:22:49.988Z,0.36
2017-02-08T04:23:56.079Z,0.38
2017-02-08T04:25:01.189Z,0.36
2017-02-08T04:26:07.269Z,0.27
2017-02-08T04:27:13.366Z,0.38
2017-02-08T04:28:19.532Z,0.42
2017-02-08T04:29:24.660Z,0.41
2017-02-08T04:30:29.780Z,0.36
2017-02-08T04:31:35.863Z,0.39
2017-02-08T04:32:41.958Z,0.39
2017-02-08T04:33:48.056Z,0.3
2017-02-08T04:34:54.141Z,0.33
2017-02-08T04:35:59.228Z,0.31
2017-02-08T04:37:04.356Z,0.33
2017-02-08T04:38:10.452Z,0.31
2017-02-08T04:39:16.549Z,0.39
2017-02-08T04:40:22.641Z,0.42
2017-02-08T04:41:28.727Z,0.31
2017-02-08T04:42:34.825Z,0.36
2017-02-08T04:43:40.920Z,0.33
2017-02-08T04:44:47.113Z,0.36
2017-02-08T04:45:51.273Z,0.36
2017-02-08T04:46:57.366Z,0.34
2017-02-08T04:48:02.478Z,0.36
2017-02-08T04:49:07.603Z,0.31
2017-02-08T04:50:13.695Z,0.25
2017-02-08T04:51:19.791Z,0.39
2017-02-08T04:52:24.917Z,0.38
2017-02-08T04:53:31.035Z,0.34
2017-02-08T04:54:37.106Z,0.34
2017-02-08T04:55:43.200Z,0.34
2017-02-08T04:56:47.355Z,0.39
2017-02-08T04:57:50.511Z,0.28
2017-02-08T04:58:55.643Z,0.3
2017-02-08T05:00:00.753Z,0.34
2017-02-08T05:01:06.840Z,0.31
2017-02-08T05:02:11.001Z,0.25
2017-02-08T05:03:17.095Z,0.31
2017-02-08T05:04:23.195Z,0.25
2017-02-08T05:05:29.283Z,0.36
2017-02-08T05:06:35.378Z,0.33
2017-02-08T05:07:41.486Z,0.28
2017-02-08T05:08:47.579Z,0.28
2017-02-08T05:09:52.693Z,0.27
2017-02-08T05:10:58.799Z,0.25
2017-02-08T05:12:02.950Z,0.3
2017-02-08T05:13:08.072Z,0.3
2017-02-08T05:14:14.180Z,0.28
2017-02-08T05:15:19.266Z,0.34
2017-02-08T05:16:25.405Z,0.38
2017-02-08T05:17:31.497Z,0.3
2017-02-08T05:18:37.579Z,0.3
2017-02-08T05:19:43.667Z,0.3
2017-02-08T05:20:49.814Z,0.31
2017-02-08T05:21:53.940Z,0.31
2017-02-08T05:22:59.069Z,0.33
2017-02-08T05:24:04.198Z,0.28
2017-02-08T05:25:09.320Z,0.25
2017-02-08T05:26:15.418Z,0.33
2017-02-08T05:27:21.511Z,0.33
2017-02-08T05:28:27.595Z,0.28
2017-02-08T05:29:33.768Z,0.28
2017-02-08T05:30:39.853Z,0.3
2017-02-08T05:31:45.940Z,0.23
2017-02-08T05:32:52.043Z,0.23
2017-02-08T05:33:58.129Z,0.24
2017-02-08T05:35:04.222Z,0.3
2017-02-08T05:36:10.312Z,0.18
2017-02-08T05:37:15.431Z,0.21
2017-02-08T05:38:21.530Z,0.21
2017-02-08T05:39:27.628Z,0.24
2017-02-08T05:40:32.756Z,0.24
2017-02-08T05:41:36.919Z,0.23
2017-02-08T05:42:43.009Z,0.31
2017-02-08T05:43:49.119Z,0.23
2017-02-08T05:44:55.198Z,0.24
2017-02-08T05:46:01.293Z,0.3
2017-02-08T05:47:07.382Z,0.21
2017-02-08T05:48:12.475Z,0.28
2017-02-08T05:49:16.651Z,0.23
2017-02-08T05:50:22.770Z,0.33
2017-02-08T05:51:28.862Z,0.23
2017-02-08T05:52:34.961Z,0.28
2017-02-08T05:53:41.049Z,0.24
2017-02-08T05:54:47.181Z,0.27
2017-02-08T05:55:53.275Z,0.23
2017-02-08T05:56:59.365Z,0.27
2017-02-08T05:58:04.487Z,0.28
2017-02-08T05:59:08.612Z,0.24
2017-02-08T06:00:13.734Z,0.13
2017-02-08T06:01:18.859Z,0.27
2017-02-08T06:02:24.939Z,0.25
2017-02-08T06:03:31.036Z,0.21
2017-02-08T06:04:37.139Z,0.23
2017-02-08T06:05:43.218Z,0.23
2017-02-08T06:06:49.302Z,0.24
2017-02-08T06:07:55.417Z,0.23
2017-02-08T06:09:00.532Z,0.23
2017-02-08T06:10:05.658Z,0.2
2017-02-08T06:11:10.778Z,0.25
2017-02-08T06:12:16.875Z,0.16
2017-02-08T06:13:23.039Z,0.31
2017-02-08T06:14:29.140Z,0.13
2017-02-08T06:15:34.260Z,0.13
2017-02-08T06:16:39.390Z,0.18
2017-02-08T06:17:45.491Z,0.2
2017-02-08T06:18:50.578Z,0.18
2017-02-08T06:19:56.673Z,0.23
2017-02-08T06:21:01.791Z,0.2
2017-02-08T06:22:05.948Z,0.21
2017-02-08T06:23:12.040Z,0.15
2017-02-08T06:24:18.135Z,0.18
2017-02-08T06:25:23.263Z,0.21
2017-02-08T06:26:29.356Z,0.15
2017-02-08T06:27:35.445Z,0.23
2017-02-08T06:28:40.571Z,0.23
2017-02-08T06:29:46.669Z,0.1
2017-02-08T06:30:51.817Z,0.18
2017-02-08T06:31:57.872Z,0.1
2017-02-08T06:33:03.026Z,0.16
2017-02-08T06:34:07.156Z,0.18
2017-02-08T06:35:13.261Z,0.13
2017-02-08T06:36:19.355Z,0.12
2017-02-08T06:37:24.456Z,0.21
2017-02-08T06:38:29.560Z,0.09
2017-02-08T06:39:34.679Z,0.13
2017-02-08T06:40:40.771Z,0.06
2017-02-08T06:41:46.863Z,0.06
2017-02-08T06:42:53.037Z,0.15
2017-02-08T06:43:59.135Z,0.05
2017-02-08T06:45:04.263Z,0.1
2017-02-08T06:46:09.387Z,0.07
2017-02-08T06:47:15.489Z,0.1
2017-02-08T06:48:20.592Z,0.07
2017-02-08T06:49:26.692Z,0.13
2017-02-08T06:50:32.790Z,0.09
2017-02-08T06:51:37.910Z,0.1
2017-02-08T06:52:44.002Z,0.2
2017-02-08T06:53:50.093Z,0.03
2017-02-08T06:54:55.218Z,0.18
2017-02-08T06:56:00.360Z,0.15
2017-02-08T06:57:06.439Z,0.1
2017-02-08T06:58:11.562Z,0.16
2017-02-08T06:59:17.640Z,0.09
2017-02-08T07:00:23.757Z,0.15
2017-02-08T07:01:27.943Z,0.13
2017-02-08T07:02:33.969Z,0.09
2017-02-08T07:03:39.093Z,0.2
2017-02-08T07:04:45.192Z,0.07
2017-02-08T07:05:50.329Z,0.12
2017-02-08T07:06:56.420Z,0.06
2017-02-08T07:08:01.580Z,0.1
2017-02-08T07:09:07.667Z,0.06
2017-02-08T07:10:13.772Z,0.05
2017-02-08T07:11:19.873Z,0.18
2017-02-08T07:12:25.067Z,0.09
2017-02-08T07:13:30.192Z,0.16
2017-02-08T07:14:36.270Z,0.18
2017-02-08T07:15:42.364Z,0.21
2017-02-08T07:16:47.481Z,0.18
2017-02-08T07:17:53.576Z,0.18
2017-02-08T07:18:59.672Z,0.23
2017-02-08T07:20:05.768Z,0.21
2017-02-08T07:21:11.865Z,0.25
2017-02-08T07:22:17.963Z,0.21
2017-02-08T07:23:24.058Z,0.2
2017-02-08T07:24:30.146Z,0.15
2017-02-08T07:25:34.311Z,0.1
2017-02-08T07:26:40.399Z,0.09
2017-02-08T07:27:45.534Z,0.2
2017-02-08T07:28:49.666Z,0.2
2017-02-08T07:29:55.780Z,0.16
2017-02-08T07:31:01.868Z,0.15
2017-02-08T07:32:07.966Z,0.24
2017-02-08T07:33:14.053Z,0.2
2017-02-08T07:34:20.153Z,0.24
2017-02-08T07:35:26.248Z,0.25
2017-02-08T07:36:32.337Z,0.24
2017-02-08T07:37:38.429Z,0.28
2017-02-08T07:38:43.560Z,0.25
2017-02-08T07:39:49.648Z,0.28
2017-02-08T07:40:55.738Z,0.28
2017-02-08T07:42:00.889Z,0.33
2017-02-08T07:43:05.985Z,0.34
2017-02-08T07:44:12.093Z,0.28
2017-02-08T07:46:23.282Z,0.3
2017-02-08T07:47:29.373Z,0.28
2017-02-08T07:48:33.497Z,0.25
2017-02-08T07:49:39.706Z,0.31
2017-02-08T07:50:44.811Z,0.24
2017-02-08T07:51:50.909Z,0.31
2017-02-08T07:52:56.016Z,0.27
2017-02-08T07:54:01.123Z,0.25
2017-02-08T07:55:06.247Z,0.25
2017-02-08T07:56:11.372Z,0.34
2017-02-08T07:57:17.465Z,0.38
2017-02-08T07:58:22.592Z,0.31
2017-02-08T07:59:27.718Z,0.41
2017-02-08T08:00:32.842Z,0.38
2017-02-08T08:01:38.929Z,0.36
2017-02-08T08:02:45.021Z,0.41
2017-02-08T08:03:50.136Z,0.41
2017-02-08T08:04:56.237Z,0.42
2017-02-08T08:06:02.329Z,0.42
2017-02-08T08:07:07.445Z,0.41
2017-02-08T08:08:13.512Z,0.43
2017-02-08T08:09:19.593Z,0.42
2017-02-08T08:10:25.682Z,0.39
2017-02-08T08:11:30.862Z,0.43
2017-02-08T08:12:36.953Z,0.46
2017-02-08T08:13:43.049Z,0.46
2017-02-08T08:14:49.150Z,0.43
2017-02-08T08:15:54.238Z,0.34
2017-02-08T08:17:00.347Z,0.45
2017-02-08T08:18:06.598Z,0.53
2017-02-08T08:19:12.687Z,0.58
2017-02-08T08:20:17.826Z,0.57
2017-02-08T08:21:23.926Z,0.61
2017-02-08T08:22:28.085Z,0.67
2017-02-08T08:23:34.180Z,0.61
2017-02-08T08:24:40.276Z,0.62
2017-02-08T08:25:46.365Z,0.65
2017-02-08T08:26:52.523Z,0.64
2017-02-08T08:27:58.619Z,0.64
2017-02-08T08:29:04.715Z,0.67
2017-02-08T08:30:10.805Z,0.58
2017-02-08T08:31:16.999Z,0.65
2017-02-08T08:32:22.124Z,0.67
2017-02-08T08:33:28.216Z,0.75
2017-02-08T08:34:34.307Z,0.76
2017-02-08T08:35:40.418Z,0.72
2017-02-08T08:36:46.560Z,0.71
2017-02-08T08:37:52.648Z,0.71
2017-02-08T08:38:58.734Z,0.76
2017-02-08T08:40:04.820Z,0.78
2017-02-08T08:41:09.946Z,0.76
2017-02-08T08:42:15.066Z,0.78
2017-02-08T08:43:20.189Z,0.79
2017-02-08T08:44:26.282Z,0.76
2017-02-08T08:45:32.435Z,0.68
2017-02-08T08:46:38.552Z,0.75
2017-02-08T08:47:44.651Z,0.75
2017-02-08T08:48:48.807Z,0.75
2017-02-08T08:49:53.930Z,0.78
2017-02-08T08:51:00.028Z,0.75
2017-02-08T08:52:06.119Z,0.82
2017-02-08T08:53:11.246Z,0.79
2017-02-08T08:54:16.361Z,0.85
2017-02-08T08:55:22.455Z,0.75
2017-02-08T08:56:28.536Z,0.9
2017-02-08T08:57:34.632Z,0.85
2017-02-08T08:58:39.763Z,0.8
2017-02-08T08:59:45.855Z,0.85
2017-02-08T09:00:51.956Z,0.86
2017-02-08T09:01:58.037Z,0.83
2017-02-08T09:03:04.132Z,0.82
2017-02-08T09:04:08.282Z,0.8
2017-02-08T09:05:14.368Z,0.83
2017-02-08T09:06:19.491Z,0.88
2017-02-08T09:07:24.578Z,0.89
2017-02-08T09:08:30.664Z,0.96
2017-02-08T09:09:35.818Z,0.96
2017-02-08T09:10:41.901Z,0.85
2017-02-08T09:11:46.993Z,0.86
2017-02-08T09:12:51.123Z,0.92
2017-02-08T09:13:57.229Z,0.86
2017-02-08T09:15:03.337Z,0.82
2017-02-08T09:16:09.426Z,0.8
2017-02-08T09:17:15.569Z,0.89
2017-02-08T09:18:21.711Z,0.83
2017-02-08T09:19:25.837Z,0.8
2017-02-08T09:20:30.966Z,0.83
2017-02-08T09:21:36.086Z,0.86
2017-02-08T09:22:42.188Z,0.89
2017-02-08T09:23:47.317Z,0.92
2017-02-08T09:24:53.407Z,0.96
2017-02-08T09:25:57.580Z,0.96
2017-02-08T09:27:03.724Z,0.89
2017-02-08T09:28:09.819Z,0.92
2017-02-08T09:29:15.908Z,0.94
2017-02-08T09:30:21.994Z,0.96
2017-02-08T09:31:28.096Z,1
2017-02-08T09:32:34.179Z,1
2017-02-08T09:33:40.277Z,0.96
2017-02-08T09:34:46.365Z,0.94
2017-02-08T09:35:51.520Z,0.96
2017-02-08T09:36:57.590Z,0.88
2017-02-08T09:38:03.679Z,0.92
2017-02-08T09:39:09.781Z,0.85
2017-02-08T09:40:15.869Z,0.92
2017-02-08T09:41:21.966Z,0.89
2017-02-08T09:42:28.118Z,0.96
2017-02-08T09:43:34.221Z,1.03
2017-02-08T09:44:40.306Z,0.96
2017-02-08T09:45:46.400Z,1
2017-02-08T09:46:52.482Z,1.01
2017-02-08T09:47:57.614Z,1
2017-02-08T09:49:02.739Z,0.98
2017-02-08T09:50:07.860Z,1.08
2017-02-08T09:51:13.004Z,1.07
2017-02-08T09:52:19.075Z,0.96
2017-02-08T09:53:25.183Z,1.06
2017-02-08T09:54:31.277Z,1.12
2017-02-08T09:55:35.416Z,1.12
2017-02-08T09:56:40.538Z,1.12
2017-02-08T09:57:45.660Z,1.14
2017-02-08T09:58:51.751Z,1.14
2017-02-08T09:59:57.838Z,1.22
2017-02-08T10:01:03.034Z,1.25
2017-02-08T10:02:09.123Z,1.25
2017-02-08T10:03:15.226Z,1.26
2017-02-08T10:04:20.325Z,1.24
2017-02-08T10:05:25.453Z,1.26
2017-02-08T10:06:31.545Z,1.26
2017-02-08T10:07:36.674Z,1.28
2017-02-08T10:08:40.827Z,1.34
2017-02-08T10:09:46.924Z,1.21
2017-02-08T10:10:53.008Z,1.28
2017-02-08T10:11:59.096Z,1.29
2017-02-08T10:13:05.186Z,1.4
2017-02-08T10:14:10.304Z,1.46
2017-02-08T10:15:16.401Z,1.47
2017-02-08T10:16:22.505Z,1.46
2017-02-08T10:17:28.601Z,1.44
2017-02-08T10:18:33.690Z,1.46
2017-02-08T10:19:39.807Z,1.57
2017-02-08T10:20:45.899Z,1.44
2017-02-08T10:21:52.015Z,1.44
2017-02-08T10:22:58.085Z,1.58
2017-02-08T10:24:03.272Z,1.58
2017-02-08T10:25:09.364Z,1.55
2017-02-08T10:26:15.472Z,1.6
2017-02-08T10:27:21.559Z,1.6
2017-02-08T10:28:26.672Z,1.61
2017-02-08T10:29:31.807Z,1.54
2017-02-08T10:30:36.933Z,1.55
2017-02-08T10:31:43.045Z,1.51
2017-02-08T10:32:49.115Z,1.62
2017-02-08T10:33:55.205Z,1.57
2017-02-08T10:35:01.298Z,1.62
2017-02-08T10:36:06.394Z,1.62
2017-02-08T10:37:12.485Z,1.71
2017-02-08T10:38:18.575Z,1.69
2017-02-08T10:39:23.708Z,1.68
2017-02-08T10:40:29.811Z,1.82
2017-02-08T10:41:35.976Z,1.9
2017-02-08T10:42:41.054Z,1.93
2017-02-08T10:43:46.156Z,1.91
2017-02-08T10:44:51.287Z,1.97
2017-02-08T10:45:57.389Z,1.94
2017-02-08T10:47:02.519Z,2.02
2017-02-08T10:48:07.623Z,2.01
2017-02-08T10:49:13.727Z,2.09
2017-02-08T10:50:19.843Z,2.15
2017-02-08T10:51:25.010Z,2.13
2017-02-08T10:52:31.087Z,2.12
2017-02-08T10:53:37.190Z,2.06
2017-02-08T10:54:43.266Z,2.27
2017-02-08T10:55:49.351Z,2.19
2017-02-08T10:56:55.441Z,2.16
2017-02-08T10:58:00.569Z,2.22
2017-02-08T10:59:05.722Z,2.33
2017-02-08T11:00:08.888Z,2.35
2017-02-08T11:01:14.012Z,2.44
2017-02-08T11:02:20.108Z,2.41
2017-02-08T11:03:26.218Z,2.52
2017-02-08T11:04:32.294Z,2.53
2017-02-08T11:05:38.421Z,2.55
2017-02-08T11:06:44.482Z,2.67
2017-02-08T11:07:49.656Z,2.69
2017-02-08T11:08:54.781Z,2.63
2017-02-08T11:09:59.901Z,2.66
2017-02-08T11:11:05.988Z,2.63
2017-02-08T11:12:12.111Z,2.74
2017-02-08T11:13:18.186Z,2.91
2017-02-08T11:14:23.308Z,2.82
2017-02-08T11:15:29.407Z,2.94
2017-02-08T11:16:35.506Z,3.09
2017-02-08T11:17:39.655Z,3.23
2017-02-08T11:18:45.764Z,3.28
2017-02-08T11:19:51.863Z,3.33
2017-02-08T11:20:56.965Z,3.3
2017-02-08T11:22:03.069Z,3.4
2017-02-08T11:23:08.201Z,3.39
2017-02-08T11:24:13.327Z,3.42
2017-02-08T11:25:18.436Z,3.46
2017-02-08T11:26:24.527Z,3.34
2017-02-08T11:27:30.631Z,3.3
2017-02-08T11:28:36.724Z,3.27
2017-02-08T11:29:42.800Z,3.25
2017-02-08T11:30:48.899Z,3.27
2017-02-08T11:31:54.994Z,3.24
2017-02-08T11:33:00.123Z,3.28
2017-02-08T11:34:06.216Z,3.4
2017-02-08T11:35:11.324Z,3.6
2017-02-08T11:36:17.423Z,3.68
2017-02-08T11:37:23.522Z,3.72
2017-02-08T11:38:28.627Z,3.72
2017-02-08T11:39:33.757Z,3.72
2017-02-08T11:40:37.910Z,3.67
2017-02-08T11:41:42.068Z,3.64
2017-02-08T11:42:48.208Z,3.5
2017-02-08T11:43:54.272Z,3.42
2017-02-08T11:44:58.452Z,3.54
2017-02-08T11:46:04.522Z,3.65
2017-02-08T11:47:09.673Z,3.8
2017-02-08T11:48:14.774Z,3.78
2017-02-08T11:49:19.904Z,3.71
2017-02-08T11:50:26.002Z,3.75
2017-02-08T11:51:31.132Z,3.62
2017-02-08T11:52:36.271Z,3.43
2017-02-08T11:53:41.396Z,3.3
2017-02-08T11:54:47.478Z,3.25
2017-02-08T11:55:52.600Z,3.28
2017-02-08T11:56:57.724Z,3.25
2017-02-08T11:58:03.812Z,3.12
2017-02-08T11:59:08.906Z,3.03
2017-02-08T12:00:14.097Z,2.94
2017-02-08T12:01:20.190Z,2.97
2017-02-08T12:02:25.329Z,2.91
2017-02-08T12:03:31.429Z,2.94
2017-02-08T12:04:37.516Z,2.95
2017-02-08T12:05:43.622Z,2.94
2017-02-08T12:06:48.749Z,2.92
2017-02-08T12:07:54.846Z,2.89
2017-02-08T12:09:00.945Z,2.89
2017-02-08T12:10:04.134Z,3.02
2017-02-08T12:11:10.235Z,3.07
2017-02-08T12:12:15.361Z,3.12
2017-02-08T12:13:21.451Z,3.07
2017-02-08T12:14:27.542Z,3.07
2017-02-08T12:15:33.640Z,3.05
2017-02-08T12:16:38.778Z,2.95
2017-02-08T12:17:44.867Z,2.92
2017-02-08T12:18:49.017Z,2.84
2017-02-08T12:19:55.116Z,2.79
2017-02-08T12:21:00.244Z,2.77
2017-02-08T12:22:06.326Z,2.79
2017-02-08T12:23:12.425Z,2.77
2017-02-08T12:24:18.525Z,2.69
2017-02-08T12:25:23.655Z,2.66
2017-02-08T12:26:28.783Z,2.59
2017-02-08T12:27:33.916Z,2.77
2017-02-08T12:28:39.050Z,2.84
2017-02-08T12:29:44.185Z,2.81
2017-02-08T12:30:48.388Z,2.7
2017-02-08T12:31:53.524Z,2.69
2017-02-08T12:32:58.613Z,2.63
2017-02-08T12:34:04.717Z,2.73
2017-02-08T12:35:09.948Z,2.67
2017-02-08T12:36:16.096Z,2.89
2017-02-08T12:37:22.192Z,2.87
2017-02-08T12:38:27.341Z,2.94
2017-02-08T12:39:33.435Z,2.92
2017-02-08T12:40:39.520Z,2.81
2017-02-08T12:41:45.608Z,2.7
2017-02-08T12:42:50.731Z,2.63
2017-02-08T12:43:55.868Z,2.71
2017-02-08T12:45:01.973Z,2.71
2017-02-08T12:46:08.049Z,2.67
2017-02-08T12:47:13.179Z,2.58
2017-02-08T12:48:17.326Z,2.53
2017-02-08T12:49:23.423Z,2.56
2017-02-08T12:50:28.543Z,2.61
2017-02-08T12:51:34.656Z,2.66
2017-02-08T12:52:40.738Z,2.61
2017-02-08T12:53:45.839Z,2.66
2017-02-08T12:54:51.934Z,2.74
2017-02-08T12:55:57.031Z,2.74
2017-02-08T12:57:02.161Z,2.71
2017-02-08T12:58:08.286Z,2.66
2017-02-08T12:59:14.379Z,2.71
2017-02-08T13:00:20.475Z,2.64
2017-02-08T13:01:26.573Z,2.63
2017-02-08T13:02:32.668Z,2.58
2017-02-08T13:03:38.773Z,2.69
2017-02-08T13:04:43.892Z,2.63
2017-02-08T13:05:48.993Z,2.59
2017-02-08T13:06:55.093Z,2.67
2017-02-08T13:08:01.181Z,2.74
2017-02-08T13:09:07.282Z,2.81
2017-02-08T13:10:13.392Z,2.89
2017-02-08T13:11:18.525Z,2.94
2017-02-08T13:12:22.659Z,2.91
2017-02-08T13:13:28.747Z,2.91
2017-02-08T13:14:34.835Z,2.92
2017-02-08T13:15:40.934Z,2.92
2017-02-08T13:16:46.067Z,3.02
2017-02-08T13:17:52.162Z,2.89
2017-02-08T13:18:57.292Z,2.84
2017-02-08T13:20:03.407Z,2.79
2017-02-08T13:21:09.486Z,2.71
2017-02-08T13:22:15.569Z,2.66
2017-02-08T13:23:20.670Z,2.76
2017-02-08T13:24:26.759Z,2.64
2017-02-08T13:25:32.861Z,2.64
2017-02-08T13:26:38.965Z,2.7
2017-02-08T13:27:45.064Z,2.61
2017-02-08T13:28:51.164Z,2.7
2017-02-08T13:29:57.265Z,2.73
2017-02-08T13:31:02.357Z,2.69
2017-02-08T13:32:08.453Z,2.76
2017-02-08T13:33:14.543Z,2.84
2017-02-08T13:34:19.671Z,2.92
2017-02-08T13:35:24.802Z,2.94
2017-02-08T13:36:29.934Z,2.94
2017-02-08T13:37:36.075Z,2.87
2017-02-08T13:38:42.145Z,2.84
2017-02-08T13:39:48.245Z,2.85
2017-02-08T13:40:54.339Z,2.89
2017-02-08T13:42:00.448Z,2.91
2017-02-08T13:43:06.551Z,2.88
2017-02-08T13:44:10.717Z,2.94
2017-02-08T13:45:15.841Z,2.87
2017-02-08T13:46:20.966Z,2.82
2017-02-08T13:47:27.091Z,2.71
2017-02-08T13:48:33.180Z,2.67
2017-02-08T13:49:38.316Z,2.7
2017-02-08T13:50:44.412Z,2.59
2017-02-08T13:51:50.505Z,2.52
2017-02-08T13:52:55.624Z,2.59
2017-02-08T13:54:01.720Z,2.55
2017-02-08T13:55:06.839Z,2.58
2017-02-08T13:56:11.966Z,2.67
2017-02-08T13:57:17.085Z,2.49
2017-02-08T13:58:22.225Z,2.46
2017-02-08T13:59:28.409Z,2.53
2017-02-08T14:00:34.474Z,2.53
2017-02-08T14:01:39.621Z,2.38
2017-02-08T14:02:44.750Z,2.41
2017-02-08T14:03:49.837Z,2.41
2017-02-08T14:04:55.936Z,2.44
2017-02-08T14:06:01.065Z,2.48
2017-02-08T14:07:07.164Z,2.4
2017-02-08T14:08:13.299Z,2.45
2017-02-08T14:09:19.465Z,2.28
2017-02-08T14:10:25.519Z,2.28
2017-02-08T14:11:31.618Z,2.16
2017-02-08T14:12:34.776Z,2.19
2017-02-08T14:13:40.868Z,2.15
2017-02-08T14:14:46.020Z,2.12
2017-02-08T14:15:52.086Z,2.16
2017-02-08T14:16:58.181Z,2.06
2017-02-08T14:18:03.281Z,2.09
2017-02-08T14:19:08.415Z,1.99
2017-02-08T14:20:13.547Z,2.06
2017-02-08T14:21:19.643Z,2.15
2017-02-08T14:22:25.734Z,2.2
2017-02-08T14:23:30.854Z,2.06
2017-02-08T14:24:36.942Z,2.09
2017-02-08T14:25:42.036Z,2.16
2017-02-08T14:26:48.133Z,2.2
2017-02-08T14:27:53.259Z,2.08
2017-02-08T14:28:59.359Z,2.13
2017-02-08T14:30:05.460Z,2.16
2017-02-08T14:31:10.600Z,2.1
2017-02-08T14:32:16.696Z,2.1
2017-02-08T14:33:22.786Z,2.09
2017-02-08T14:35:34.953Z,1.93
2017-02-08T14:36:41.084Z,1.91
2017-02-08T14:37:47.218Z,1.87